sensor_id;sensor_type;location;lat;lon;timestamp;P1;durP1;ratioP1;P2;durP2;ratioP2
2099;SDS011;1055;48.854;9.302;2023-02-18T00:01:54;8.30;;;3.10;;
2099;SDS011;1055;48.854;9.302;2023-02-18T00:04:20;5.47;;;2.10;;
2099;SDS011;1055;48.854;9.302;2023-02-18T00:06:46;4.70;;;1.30;;
2099;SDS011;1055;48.854;9.302;2023-02-18T00:09:11;4.23;;;1.03;;
2099;SDS011;1055;48.854;9.302;2023-02-18T00:11:37;5.33;;;1.43;;
2099;SDS011;1055;48.854;9.302;2023-02-18T00:14:04;5.00;;;1.67;;
2099;SDS011;1055;48.854;9.302;2023-02-18T00:16:32;4.53;;;1.23;;
2099;SDS011;1055;48.854;9.302;2023-02-18T00:18:58;4.97;;;1.23;;
2099;SDS011;1055;48.854;9.302;2023-02-18T00:21:25;5.13;;;1.20;;
2099;SDS011;1055;48.854;9.302;2023-02-18T00:23:51;5.10;;;1.20;;
2099;SDS011;1055;48.854;9.302;2023-02-18T00:26:18;4.57;;;1.13;;
2099;SDS011;1055;48.854;9.302;2023-02-18T00:28:44;4.80;;;1.20;;
2099;SDS011;1055;48.854;9.302;2023-02-18T00:31:14;4.57;;;1.07;;
2099;SDS011;1055;48.854;9.302;2023-02-18T00:33:41;4.60;;;1.10;;
2099;SDS011;1055;48.854;9.302;2023-02-18T00:36:11;4.40;;;1.10;;
2099;SDS011;1055;48.854;9.302;2023-02-18T00:38:46;4.77;;;1.20;;
2099;SDS011;1055;48.854;9.302;2023-02-18T00:41:14;4.80;;;1.20;;
2099;SDS011;1055;48.854;9.302;2023-02-18T00:43:40;4.70;;;1.43;;
2099;SDS011;1055;48.854;9.302;2023-02-18T00:46:06;4.90;;;1.23;;
2099;SDS011;1055;48.854;9.302;2023-02-18T00:48:32;4.53;;;1.23;;
2099;SDS011;1055;48.854;9.302;2023-02-18T00:50:59;4.93;;;1.17;;
2099;SDS011;1055;48.854;9.302;2023-02-18T00:53:26;4.45;;;1.13;;
2099;SDS011;1055;48.854;9.302;2023-02-18T00:55:52;4.60;;;1.20;;
2099;SDS011;1055;48.854;9.302;2023-02-18T00:58:18;4.23;;;1.10;;
2099;SDS011;1055;48.854;9.302;2023-02-18T01:00:44;4.53;;;1.20;;
2099;SDS011;1055;48.854;9.302;2023-02-18T01:03:10;5.40;;;1.17;;
2099;SDS011;1055;48.854;9.302;2023-02-18T01:05:37;4.37;;;1.10;;
2099;SDS011;1055;48.854;9.302;2023-02-18T01:08:03;4.90;;;1.40;;
2099;SDS011;1055;48.854;9.302;2023-02-18T01:10:29;4.67;;;1.10;;
2099;SDS011;1055;48.854;9.302;2023-02-18T01:12:55;4.70;;;1.20;;
2099;SDS011;1055;48.854;9.302;2023-02-18T01:15:21;4.77;;;1.47;;
2099;SDS011;1055;48.854;9.302;2023-02-18T01:17:47;4.70;;;1.10;;
2099;SDS011;1055;48.854;9.302;2023-02-18T01:20:13;4.50;;;1.20;;
2099;SDS011;1055;48.854;9.302;2023-02-18T01:22:39;4.63;;;1.87;;
2099;SDS011;1055;48.854;9.302;2023-02-18T01:25:06;5.37;;;1.17;;
2099;SDS011;1055;48.854;9.302;2023-02-18T01:27:32;6.67;;;1.30;;
2099;SDS011;1055;48.854;9.302;2023-02-18T01:29:58;4.57;;;1.30;;
2099;SDS011;1055;48.854;9.302;2023-02-18T01:32:23;4.50;;;1.30;;
2099;SDS011;1055;48.854;9.302;2023-02-18T01:34:49;5.27;;;1.20;;
2099;SDS011;1055;48.854;9.302;2023-02-18T01:37:14;4.80;;;1.30;;
2099;SDS011;1055;48.854;9.302;2023-02-18T01:39:40;5.23;;;1.33;;
2099;SDS011;1055;48.854;9.302;2023-02-18T01:42:06;5.33;;;1.20;;
2099;SDS011;1055;48.854;9.302;2023-02-18T01:44:40;4.38;;;1.10;;
2099;SDS011;1055;48.854;9.302;2023-02-18T01:47:05;6.93;;;1.30;;
2099;SDS011;1055;48.854;9.302;2023-02-18T01:49:31;4.90;;;1.33;;
2099;SDS011;1055;48.854;9.302;2023-02-18T01:52:10;4.60;;;1.20;;
2099;SDS011;1055;48.854;9.302;2023-02-18T01:54:44;4.63;;;1.43;;
2099;SDS011;1055;48.854;9.302;2023-02-18T01:57:15;5.00;;;1.60;;
2099;SDS011;1055;48.854;9.302;2023-02-18T01:59:45;4.93;;;1.23;;
2099;SDS011;1055;48.854;9.302;2023-02-18T02:02:17;4.67;;;1.27;;
2099;SDS011;1055;48.854;9.302;2023-02-18T02:04:45;4.67;;;1.57;;
2099;SDS011;1055;48.854;9.302;2023-02-18T02:07:11;5.63;;;1.63;;
2099;SDS011;1055;48.854;9.302;2023-02-18T02:09:38;4.70;;;1.40;;
2099;SDS011;1055;48.854;9.302;2023-02-18T02:41:30;5.50;;;1.70;;
2099;SDS011;1055;48.854;9.302;2023-02-18T02:44:25;4.90;;;1.60;;
2099;SDS011;1055;48.854;9.302;2023-02-18T02:47:14;4.80;;;1.60;;
2099;SDS011;1055;48.854;9.302;2023-02-18T02:50:25;5.10;;;1.90;;
2099;SDS011;1055;48.854;9.302;2023-02-18T02:52:57;5.20;;;1.80;;
2099;SDS011;1055;48.854;9.302;2023-02-18T02:55:26;4.90;;;1.63;;
2099;SDS011;1055;48.854;9.302;2023-02-18T02:57:52;5.97;;;1.90;;
2099;SDS011;1055;48.854;9.302;2023-02-18T03:00:27;4.97;;;1.90;;
2099;SDS011;1055;48.854;9.302;2023-02-18T03:08:54;5.20;;;1.93;;
2099;SDS011;1055;48.854;9.302;2023-02-18T03:12:02;4.70;;;1.80;;
2099;SDS011;1055;48.854;9.302;2023-02-18T03:14:55;5.30;;;1.93;;
2099;SDS011;1055;48.854;9.302;2023-02-18T03:17:29;5.27;;;2.10;;
2099;SDS011;1055;48.854;9.302;2023-02-18T03:20:14;5.50;;;1.90;;
2099;SDS011;1055;48.854;9.302;2023-02-18T03:22:47;6.17;;;2.20;;
2099;SDS011;1055;48.854;9.302;2023-02-18T03:25:14;5.77;;;1.80;;
2099;SDS011;1055;48.854;9.302;2023-02-18T03:27:48;5.40;;;1.97;;
2099;SDS011;1055;48.854;9.302;2023-02-18T03:30:35;5.87;;;2.10;;
2099;SDS011;1055;48.854;9.302;2023-02-18T03:33:10;6.90;;;2.10;;
2099;SDS011;1055;48.854;9.302;2023-02-18T03:35:41;6.05;;;1.98;;
2099;SDS011;1055;48.854;9.302;2023-02-18T03:38:11;8.00;;;1.73;;
2099;SDS011;1055;48.854;9.302;2023-02-18T03:40:41;6.30;;;2.07;;
2099;SDS011;1055;48.854;9.302;2023-02-18T03:43:07;5.10;;;1.80;;
2099;SDS011;1055;48.854;9.302;2023-02-18T03:45:32;5.90;;;2.00;;
2099;SDS011;1055;48.854;9.302;2023-02-18T03:47:58;4.90;;;1.60;;
2099;SDS011;1055;48.854;9.302;2023-02-18T03:50:24;4.97;;;1.63;;
2099;SDS011;1055;48.854;9.302;2023-02-18T03:52:49;4.73;;;1.80;;
2099;SDS011;1055;48.854;9.302;2023-02-18T03:55:15;5.30;;;1.83;;
2099;SDS011;1055;48.854;9.302;2023-02-18T03:57:41;5.20;;;1.90;;
2099;SDS011;1055;48.854;9.302;2023-02-18T04:00:07;5.27;;;1.60;;
2099;SDS011;1055;48.854;9.302;2023-02-18T04:02:33;5.40;;;1.83;;
2099;SDS011;1055;48.854;9.302;2023-02-18T04:04:59;5.37;;;1.70;;
2099;SDS011;1055;48.854;9.302;2023-02-18T04:07:24;5.13;;;1.70;;
2099;SDS011;1055;48.854;9.302;2023-02-18T04:09:50;5.40;;;1.60;;
2099;SDS011;1055;48.854;9.302;2023-02-18T04:12:15;6.70;;;2.03;;
2099;SDS011;1055;48.854;9.302;2023-02-18T04:14:41;6.20;;;1.80;;
2099;SDS011;1055;48.854;9.302;2023-02-18T04:17:07;7.33;;;2.03;;
2099;SDS011;1055;48.854;9.302;2023-02-18T04:19:32;7.27;;;1.90;;
2099;SDS011;1055;48.854;9.302;2023-02-18T04:21:58;6.23;;;1.83;;
2099;SDS011;1055;48.854;9.302;2023-02-18T04:24:24;6.37;;;1.70;;
2099;SDS011;1055;48.854;9.302;2023-02-18T04:26:49;5.73;;;1.60;;
2099;SDS011;1055;48.854;9.302;2023-02-18T04:29:15;4.90;;;1.73;;
2099;SDS011;1055;48.854;9.302;2023-02-18T04:31:40;5.33;;;2.03;;
2099;SDS011;1055;48.854;9.302;2023-02-18T04:34:06;5.90;;;2.30;;
2099;SDS011;1055;48.854;9.302;2023-02-18T04:36:32;4.83;;;1.40;;
2099;SDS011;1055;48.854;9.302;2023-02-18T04:38:57;5.50;;;1.77;;
2099;SDS011;1055;48.854;9.302;2023-02-18T04:41:23;4.80;;;1.40;;
2099;SDS011;1055;48.854;9.302;2023-02-18T04:43:49;5.00;;;1.60;;
2099;SDS011;1055;48.854;9.302;2023-02-18T04:46:15;5.10;;;1.70;;
2099;SDS011;1055;48.854;9.302;2023-02-18T04:48:40;4.83;;;1.60;;
2099;SDS011;1055;48.854;9.302;2023-02-18T04:51:06;5.23;;;1.83;;
2099;SDS011;1055;48.854;9.302;2023-02-18T04:53:32;5.97;;;1.60;;
2099;SDS011;1055;48.854;9.302;2023-02-18T04:55:57;5.07;;;1.70;;
2099;SDS011;1055;48.854;9.302;2023-02-18T04:58:23;5.37;;;1.97;;
2099;SDS011;1055;48.854;9.302;2023-02-18T05:00:49;5.00;;;1.80;;
2099;SDS011;1055;48.854;9.302;2023-02-18T05:03:14;5.00;;;1.67;;
2099;SDS011;1055;48.854;9.302;2023-02-18T05:05:40;4.90;;;1.80;;
2099;SDS011;1055;48.854;9.302;2023-02-18T05:08:06;5.30;;;1.90;;
2099;SDS011;1055;48.854;9.302;2023-02-18T05:10:33;5.20;;;1.75;;
2099;SDS011;1055;48.854;9.302;2023-02-18T05:12:58;5.90;;;2.00;;
2099;SDS011;1055;48.854;9.302;2023-02-18T05:15:24;5.10;;;1.80;;
2099;SDS011;1055;48.854;9.302;2023-02-18T05:17:50;5.20;;;1.70;;
2099;SDS011;1055;48.854;9.302;2023-02-18T05:20:16;5.37;;;1.60;;
2099;SDS011;1055;48.854;9.302;2023-02-18T05:22:42;5.20;;;1.53;;
2099;SDS011;1055;48.854;9.302;2023-02-18T05:25:07;4.80;;;1.43;;
2099;SDS011;1055;48.854;9.302;2023-02-18T05:27:33;5.83;;;1.87;;
2099;SDS011;1055;48.854;9.302;2023-02-18T05:29:59;5.03;;;1.70;;
2099;SDS011;1055;48.854;9.302;2023-02-18T05:32:25;4.93;;;1.80;;
2099;SDS011;1055;48.854;9.302;2023-02-18T05:34:50;5.20;;;1.67;;
2099;SDS011;1055;48.854;9.302;2023-02-18T05:37:16;4.97;;;1.60;;
2099;SDS011;1055;48.854;9.302;2023-02-18T05:39:42;5.00;;;1.80;;
2099;SDS011;1055;48.854;9.302;2023-02-18T05:42:08;4.80;;;1.50;;
2099;SDS011;1055;48.854;9.302;2023-02-18T05:44:34;4.50;;;1.50;;
2099;SDS011;1055;48.854;9.302;2023-02-18T05:47:04;5.17;;;1.77;;
2099;SDS011;1055;48.854;9.302;2023-02-18T05:49:32;5.25;;;1.88;;
2099;SDS011;1055;48.854;9.302;2023-02-18T05:51:59;5.18;;;1.65;;
2099;SDS011;1055;48.854;9.302;2023-02-18T05:54:26;5.80;;;1.88;;
2099;SDS011;1055;48.854;9.302;2023-02-18T05:56:51;5.28;;;1.80;;
2099;SDS011;1055;48.854;9.302;2023-02-18T05:59:17;6.07;;;2.10;;
2099;SDS011;1055;48.854;9.302;2023-02-18T06:01:45;8.98;;;5.75;;
2099;SDS011;1055;48.854;9.302;2023-02-18T06:04:16;11.77;;;7.90;;
2099;SDS011;1055;48.854;9.302;2023-02-18T06:06:44;23.85;;;14.70;;
2099;SDS011;1055;48.854;9.302;2023-02-18T06:09:15;9.38;;;5.15;;
2099;SDS011;1055;48.854;9.302;2023-02-18T06:11:42;6.28;;;2.75;;
2099;SDS011;1055;48.854;9.302;2023-02-18T06:14:11;7.40;;;5.75;;
2099;SDS011;1055;48.854;9.302;2023-02-18T06:16:40;6.30;;;3.60;;
2099;SDS011;1055;48.854;9.302;2023-02-18T06:19:11;5.13;;;1.85;;
2099;SDS011;1055;48.854;9.302;2023-02-18T06:21:42;4.95;;;1.70;;
2099;SDS011;1055;48.854;9.302;2023-02-18T06:24:08;6.63;;;2.00;;
2099;SDS011;1055;48.854;9.302;2023-02-18T06:26:34;5.73;;;1.80;;
2099;SDS011;1055;48.854;9.302;2023-02-18T06:28:59;6.40;;;1.87;;
2099;SDS011;1055;48.854;9.302;2023-02-18T06:31:25;5.50;;;1.80;;
2099;SDS011;1055;48.854;9.302;2023-02-18T06:33:51;5.73;;;2.00;;
2099;SDS011;1055;48.854;9.302;2023-02-18T06:36:16;5.10;;;1.90;;
2099;SDS011;1055;48.854;9.302;2023-02-18T06:38:43;4.93;;;1.67;;
2099;SDS011;1055;48.854;9.302;2023-02-18T06:41:10;4.97;;;1.65;;
2099;SDS011;1055;48.854;9.302;2023-02-18T06:43:37;6.43;;;2.00;;
2099;SDS011;1055;48.854;9.302;2023-02-18T06:46:03;5.20;;;1.88;;
2099;SDS011;1055;48.854;9.302;2023-02-18T06:48:29;5.93;;;2.00;;
2099;SDS011;1055;48.854;9.302;2023-02-18T06:50:55;5.07;;;1.60;;
2099;SDS011;1055;48.854;9.302;2023-02-18T06:53:21;5.37;;;2.00;;
2099;SDS011;1055;48.854;9.302;2023-02-18T06:55:46;5.37;;;1.73;;
2099;SDS011;1055;48.854;9.302;2023-02-18T06:58:12;5.33;;;1.80;;
2099;SDS011;1055;48.854;9.302;2023-02-18T07:00:38;5.05;;;1.50;;
2099;SDS011;1055;48.854;9.302;2023-02-18T07:03:04;4.80;;;1.67;;
2099;SDS011;1055;48.854;9.302;2023-02-18T07:05:30;5.30;;;1.65;;
2099;SDS011;1055;48.854;9.302;2023-02-18T07:07:56;5.17;;;1.73;;
2099;SDS011;1055;48.854;9.302;2023-02-18T07:10:22;5.23;;;1.87;;
2099;SDS011;1055;48.854;9.302;2023-02-18T07:12:47;5.70;;;1.80;;
2099;SDS011;1055;48.854;9.302;2023-02-18T07:15:13;5.00;;;1.60;;
2099;SDS011;1055;48.854;9.302;2023-02-18T07:17:39;5.00;;;1.70;;
2099;SDS011;1055;48.854;9.302;2023-02-18T07:20:05;5.37;;;1.80;;
2099;SDS011;1055;48.854;9.302;2023-02-18T07:22:31;5.55;;;2.05;;
2099;SDS011;1055;48.854;9.302;2023-02-18T07:24:57;4.90;;;1.60;;
2099;SDS011;1055;48.854;9.302;2023-02-18T07:27:23;5.60;;;2.10;;
2099;SDS011;1055;48.854;9.302;2023-02-18T07:29:49;5.20;;;1.83;;
2099;SDS011;1055;48.854;9.302;2023-02-18T07:32:15;5.97;;;2.07;;
2099;SDS011;1055;48.854;9.302;2023-02-18T07:34:42;7.35;;;1.90;;
2099;SDS011;1055;48.854;9.302;2023-02-18T07:37:08;6.47;;;2.23;;
2099;SDS011;1055;48.854;9.302;2023-02-18T07:39:34;5.10;;;1.90;;
2099;SDS011;1055;48.854;9.302;2023-02-18T07:42:03;5.75;;;1.70;;
2099;SDS011;1055;48.854;9.302;2023-02-18T07:44:29;6.20;;;1.80;;
2099;SDS011;1055;48.854;9.302;2023-02-18T07:46:55;7.00;;;2.40;;
2099;SDS011;1055;48.854;9.302;2023-02-18T07:49:20;5.97;;;2.53;;
2099;SDS011;1055;48.854;9.302;2023-02-18T07:51:47;8.40;;;4.20;;
2099;SDS011;1055;48.854;9.302;2023-02-18T07:54:13;6.43;;;2.83;;
2099;SDS011;1055;48.854;9.302;2023-02-18T07:56:39;6.17;;;2.00;;
2099;SDS011;1055;48.854;9.302;2023-02-18T07:59:05;6.73;;;3.07;;
2099;SDS011;1055;48.854;9.302;2023-02-18T08:01:30;5.97;;;2.30;;
2099;SDS011;1055;48.854;9.302;2023-02-18T08:03:56;5.83;;;1.90;;
2099;SDS011;1055;48.854;9.302;2023-02-18T08:06:24;5.87;;;2.50;;
2099;SDS011;1055;48.854;9.302;2023-02-18T08:08:54;5.65;;;2.20;;
2099;SDS011;1055;48.854;9.302;2023-02-18T08:11:19;5.40;;;1.70;;
2099;SDS011;1055;48.854;9.302;2023-02-18T08:13:46;6.00;;;2.30;;
2099;SDS011;1055;48.854;9.302;2023-02-18T08:16:12;5.50;;;2.05;;
2099;SDS011;1055;48.854;9.302;2023-02-18T08:18:39;5.60;;;2.00;;
2099;SDS011;1055;48.854;9.302;2023-02-18T08:21:05;5.00;;;1.80;;
2099;SDS011;1055;48.854;9.302;2023-02-18T08:23:30;5.67;;;2.30;;
2099;SDS011;1055;48.854;9.302;2023-02-18T08:25:56;5.33;;;2.10;;
2099;SDS011;1055;48.854;9.302;2023-02-18T08:28:22;5.80;;;2.30;;
2099;SDS011;1055;48.854;9.302;2023-02-18T08:30:49;7.23;;;2.70;;
2099;SDS011;1055;48.854;9.302;2023-02-18T08:33:16;5.80;;;2.00;;
2099;SDS011;1055;48.854;9.302;2023-02-18T08:35:43;5.70;;;2.10;;
2099;SDS011;1055;48.854;9.302;2023-02-18T08:38:10;5.03;;;2.07;;
2099;SDS011;1055;48.854;9.302;2023-02-18T08:40:36;5.57;;;2.17;;
2099;SDS011;1055;48.854;9.302;2023-02-18T08:43:02;6.03;;;2.30;;
2099;SDS011;1055;48.854;9.302;2023-02-18T08:45:27;6.27;;;2.07;;
2099;SDS011;1055;48.854;9.302;2023-02-18T08:47:54;6.10;;;2.30;;
2099;SDS011;1055;48.854;9.302;2023-02-18T08:50:20;5.75;;;2.15;;
2099;SDS011;1055;48.854;9.302;2023-02-18T08:52:50;4.97;;;1.87;;
2099;SDS011;1055;48.854;9.302;2023-02-18T08:55:18;5.50;;;1.70;;
2099;SDS011;1055;48.854;9.302;2023-02-18T08:57:48;5.00;;;1.77;;
2099;SDS011;1055;48.854;9.302;2023-02-18T09:00:14;5.57;;;1.70;;
2099;SDS011;1055;48.854;9.302;2023-02-18T09:02:41;5.50;;;2.00;;
2099;SDS011;1055;48.854;9.302;2023-02-18T09:05:07;5.80;;;2.10;;
2099;SDS011;1055;48.854;9.302;2023-02-18T09:07:34;5.67;;;1.97;;
2099;SDS011;1055;48.854;9.302;2023-02-18T09:10:00;5.27;;;1.80;;
2099;SDS011;1055;48.854;9.302;2023-02-18T09:12:26;5.40;;;1.93;;
2099;SDS011;1055;48.854;9.302;2023-02-18T09:14:52;5.90;;;1.77;;
2099;SDS011;1055;48.854;9.302;2023-02-18T09:17:18;5.10;;;1.63;;
2099;SDS011;1055;48.854;9.302;2023-02-18T09:19:44;6.80;;;1.80;;
2099;SDS011;1055;48.854;9.302;2023-02-18T09:22:09;5.30;;;1.37;;
2099;SDS011;1055;48.854;9.302;2023-02-18T09:24:36;5.10;;;1.90;;
2099;SDS011;1055;48.854;9.302;2023-02-18T09:27:02;5.57;;;1.50;;
2099;SDS011;1055;48.854;9.302;2023-02-18T09:29:28;5.30;;;1.60;;
2099;SDS011;1055;48.854;9.302;2023-02-18T09:31:53;4.83;;;1.60;;
2099;SDS011;1055;48.854;9.302;2023-02-18T09:34:19;5.03;;;1.53;;
2099;SDS011;1055;48.854;9.302;2023-02-18T09:36:45;5.50;;;1.53;;
2099;SDS011;1055;48.854;9.302;2023-02-18T09:39:10;8.03;;;2.40;;
2099;SDS011;1055;48.854;9.302;2023-02-18T09:41:42;7.90;;;1.43;;
2099;SDS011;1055;48.854;9.302;2023-02-18T09:44:19;4.50;;;1.27;;
2099;SDS011;1055;48.854;9.302;2023-02-18T09:46:50;5.10;;;1.80;;
2099;SDS011;1055;48.854;9.302;2023-02-18T09:49:27;5.30;;;1.43;;
2099;SDS011;1055;48.854;9.302;2023-02-18T09:52:06;5.10;;;1.80;;
2099;SDS011;1055;48.854;9.302;2023-02-18T09:54:50;5.33;;;1.40;;
2099;SDS011;1055;48.854;9.302;2023-02-18T09:57:26;5.00;;;1.60;;
2099;SDS011;1055;48.854;9.302;2023-02-18T09:59:59;4.97;;;1.50;;
2099;SDS011;1055;48.854;9.302;2023-02-18T10:02:30;4.70;;;1.33;;
2099;SDS011;1055;48.854;9.302;2023-02-18T10:04:57;4.57;;;1.37;;
2099;SDS011;1055;48.854;9.302;2023-02-18T10:07:25;5.53;;;1.97;;
2099;SDS011;1055;48.854;9.302;2023-02-18T10:09:54;5.03;;;1.73;;
2099;SDS011;1055;48.854;9.302;2023-02-18T10:12:22;4.80;;;1.50;;
2099;SDS011;1055;48.854;9.302;2023-02-18T10:14:51;5.60;;;1.13;;
2099;SDS011;1055;48.854;9.302;2023-02-18T10:17:24;4.60;;;1.20;;
2099;SDS011;1055;48.854;9.302;2023-02-18T10:19:52;5.00;;;1.40;;
2099;SDS011;1055;48.854;9.302;2023-02-18T10:22:21;7.43;;;1.20;;
2099;SDS011;1055;48.854;9.302;2023-02-18T10:24:53;4.80;;;1.10;;
2099;SDS011;1055;48.854;9.302;2023-02-18T10:27:23;5.13;;;1.30;;
2099;SDS011;1055;48.854;9.302;2023-02-18T10:29:49;5.03;;;1.63;;
2099;SDS011;1055;48.854;9.302;2023-02-18T10:32:16;5.13;;;1.43;;
2099;SDS011;1055;48.854;9.302;2023-02-18T10:35:11;4.50;;;1.37;;
2099;SDS011;1055;48.854;9.302;2023-02-18T10:37:51;5.23;;;1.53;;
2099;SDS011;1055;48.854;9.302;2023-02-18T10:40:34;5.70;;;1.80;;
2099;SDS011;1055;48.854;9.302;2023-02-18T10:51:21;4.73;;;1.47;;
2099;SDS011;1055;48.854;9.302;2023-02-18T10:53:51;4.77;;;1.53;;
2099;SDS011;1055;48.854;9.302;2023-02-18T10:59:11;5.27;;;1.50;;
2099;SDS011;1055;48.854;9.302;2023-02-18T11:01:42;5.20;;;1.70;;
2099;SDS011;1055;48.854;9.302;2023-02-18T11:04:14;4.90;;;1.30;;
2099;SDS011;1055;48.854;9.302;2023-02-18T11:06:48;4.53;;;1.30;;
2099;SDS011;1055;48.854;9.302;2023-02-18T11:12:45;5.80;;;1.60;;
2099;SDS011;1055;48.854;9.302;2023-02-18T11:17:32;4.40;;;1.20;;
2099;SDS011;1055;48.854;9.302;2023-02-18T11:20:02;4.30;;;1.00;;
2099;SDS011;1055;48.854;9.302;2023-02-18T11:22:46;4.57;;;1.33;;
2099;SDS011;1055;48.854;9.302;2023-02-18T11:27:56;6.60;;;1.50;;
2099;SDS011;1055;48.854;9.302;2023-02-18T11:30:26;4.80;;;1.30;;
2099;SDS011;1055;48.854;9.302;2023-02-18T11:32:59;4.40;;;1.10;;
2099;SDS011;1055;48.854;9.302;2023-02-18T11:35:54;4.40;;;1.00;;
2099;SDS011;1055;48.854;9.302;2023-02-18T11:38:26;4.97;;;1.00;;
2099;SDS011;1055;48.854;9.302;2023-02-18T11:41:02;5.00;;;1.57;;
2099;SDS011;1055;48.854;9.302;2023-02-18T11:43:32;4.93;;;1.33;;
2099;SDS011;1055;48.854;9.302;2023-02-18T11:46:19;7.13;;;1.70;;
2099;SDS011;1055;48.854;9.302;2023-02-18T11:48:47;5.10;;;1.53;;
2099;SDS011;1055;48.854;9.302;2023-02-18T11:51:22;4.57;;;1.17;;
2099;SDS011;1055;48.854;9.302;2023-02-18T11:56:29;7.40;;;1.50;;
2099;SDS011;1055;48.854;9.302;2023-02-18T11:58:59;5.10;;;1.60;;
2099;SDS011;1055;48.854;9.302;2023-02-18T12:04:15;4.50;;;1.10;;
2099;SDS011;1055;48.854;9.302;2023-02-18T12:09:22;4.67;;;1.20;;
2099;SDS011;1055;48.854;9.302;2023-02-18T12:11:58;5.00;;;1.50;;
2099;SDS011;1055;48.854;9.302;2023-02-18T12:14:26;5.63;;;1.80;;
2099;SDS011;1055;48.854;9.302;2023-02-18T12:44:39;5.67;;;1.80;;
2099;SDS011;1055;48.854;9.302;2023-02-18T12:47:14;7.00;;;1.50;;
2099;SDS011;1055;48.854;9.302;2023-02-18T12:53:13;6.93;;;1.60;;
2099;SDS011;1055;48.854;9.302;2023-02-18T12:55:49;5.93;;;1.67;;
2099;SDS011;1055;48.854;9.302;2023-02-18T13:01:12;5.60;;;1.77;;
2099;SDS011;1055;48.854;9.302;2023-02-18T13:17:53;5.43;;;2.10;;
2099;SDS011;1055;48.854;9.302;2023-02-18T13:20:24;5.73;;;2.40;;
2099;SDS011;1055;48.854;9.302;2023-02-18T13:23:16;6.00;;;2.10;;
2099;SDS011;1055;48.854;9.302;2023-02-18T13:25:45;4.90;;;1.60;;
2099;SDS011;1055;48.854;9.302;2023-02-18T13:29:16;5.43;;;2.07;;
2099;SDS011;1055;48.854;9.302;2023-02-18T13:31:14;5.30;;;1.87;;
2099;SDS011;1055;48.854;9.302;2023-02-18T13:37:05;5.40;;;2.10;;
2099;SDS011;1055;48.854;9.302;2023-02-18T13:39:37;5.53;;;2.10;;
2099;SDS011;1055;48.854;9.302;2023-02-18T13:47:15;5.73;;;2.13;;
2099;SDS011;1055;48.854;9.302;2023-02-18T13:52:50;5.70;;;2.30;;
2099;SDS011;1055;48.854;9.302;2023-02-18T13:55:25;5.60;;;1.63;;
2099;SDS011;1055;48.854;9.302;2023-02-18T13:58:18;5.40;;;1.60;;
2099;SDS011;1055;48.854;9.302;2023-02-18T14:00:50;5.67;;;2.10;;
2099;SDS011;1055;48.854;9.302;2023-02-18T14:05:57;5.50;;;2.33;;
2099;SDS011;1055;48.854;9.302;2023-02-18T14:08:42;5.00;;;1.97;;
2099;SDS011;1055;48.854;9.302;2023-02-18T14:13:37;5.67;;;2.30;;
2099;SDS011;1055;48.854;9.302;2023-02-18T14:16:06;4.83;;;1.90;;
2099;SDS011;1055;48.854;9.302;2023-02-18T14:18:53;7.57;;;2.67;;
2099;SDS011;1055;48.854;9.302;2023-02-18T14:21:22;5.67;;;2.20;;
2099;SDS011;1055;48.854;9.302;2023-02-18T14:24:04;5.20;;;1.83;;
2099;SDS011;1055;48.854;9.302;2023-02-18T14:26:32;6.03;;;2.00;;
2099;SDS011;1055;48.854;9.302;2023-02-18T14:29:03;4.70;;;1.60;;
2099;SDS011;1055;48.854;9.302;2023-02-18T14:41:59;5.47;;;2.00;;
2099;SDS011;1055;48.854;9.302;2023-02-18T14:50:11;5.13;;;2.00;;
2099;SDS011;1055;48.854;9.302;2023-02-18T14:52:42;5.40;;;2.03;;
2099;SDS011;1055;48.854;9.302;2023-02-18T14:55:26;5.27;;;2.10;;
2099;SDS011;1055;48.854;9.302;2023-02-18T14:57:56;5.40;;;2.40;;
2099;SDS011;1055;48.854;9.302;2023-02-18T15:00:27;7.10;;;2.13;;
2099;SDS011;1055;48.854;9.302;2023-02-18T15:02:58;7.47;;;2.30;;
2099;SDS011;1055;48.854;9.302;2023-02-18T15:05:26;5.43;;;2.17;;
2099;SDS011;1055;48.854;9.302;2023-02-18T15:08:00;5.50;;;1.90;;
2099;SDS011;1055;48.854;9.302;2023-02-18T15:10:52;5.73;;;2.10;;
2099;SDS011;1055;48.854;9.302;2023-02-18T15:13:27;6.20;;;2.27;;
2099;SDS011;1055;48.854;9.302;2023-02-18T15:15:56;7.97;;;2.10;;
2099;SDS011;1055;48.854;9.302;2023-02-18T15:18:29;6.20;;;2.70;;
2099;SDS011;1055;48.854;9.302;2023-02-18T15:21:00;5.50;;;2.00;;
2099;SDS011;1055;48.854;9.302;2023-02-18T15:23:26;5.50;;;2.00;;
2099;SDS011;1055;48.854;9.302;2023-02-18T15:25:53;5.97;;;2.47;;
2099;SDS011;1055;48.854;9.302;2023-02-18T15:28:20;6.03;;;2.10;;
2099;SDS011;1055;48.854;9.302;2023-02-18T15:30:51;5.30;;;2.10;;
2099;SDS011;1055;48.854;9.302;2023-02-18T15:33:17;6.30;;;2.27;;
2099;SDS011;1055;48.854;9.302;2023-02-18T15:35:45;5.37;;;1.93;;
2099;SDS011;1055;48.854;9.302;2023-02-18T15:38:17;5.30;;;1.93;;
2099;SDS011;1055;48.854;9.302;2023-02-18T15:40:46;5.57;;;2.53;;
2099;SDS011;1055;48.854;9.302;2023-02-18T15:43:16;6.57;;;3.00;;
2099;SDS011;1055;48.854;9.302;2023-02-18T15:45:45;7.83;;;3.63;;
2099;SDS011;1055;48.854;9.302;2023-02-18T15:48:19;6.40;;;2.80;;
2099;SDS011;1055;48.854;9.302;2023-02-18T15:50:52;6.40;;;2.67;;
2099;SDS011;1055;48.854;9.302;2023-02-18T15:53:20;6.30;;;2.47;;
2099;SDS011;1055;48.854;9.302;2023-02-18T15:55:48;6.33;;;2.90;;
2099;SDS011;1055;48.854;9.302;2023-02-18T15:58:20;5.67;;;2.33;;
2099;SDS011;1055;48.854;9.302;2023-02-18T16:06:07;5.83;;;2.33;;
2099;SDS011;1055;48.854;9.302;2023-02-18T16:11:24;6.93;;;2.90;;
2099;SDS011;1055;48.854;9.302;2023-02-18T16:13:51;7.67;;;3.00;;
2099;SDS011;1055;48.854;9.302;2023-02-18T16:16:23;7.40;;;2.80;;
2099;SDS011;1055;48.854;9.302;2023-02-18T16:18:53;5.40;;;2.27;;
2099;SDS011;1055;48.854;9.302;2023-02-18T16:23:45;7.97;;;3.70;;
2099;SDS011;1055;48.854;9.302;2023-02-18T16:29:14;6.10;;;2.80;;
2099;SDS011;1055;48.854;9.302;2023-02-18T16:31:47;5.17;;;2.10;;
2099;SDS011;1055;48.854;9.302;2023-02-18T16:34:13;6.60;;;2.60;;
2099;SDS011;1055;48.854;9.302;2023-02-18T16:36:39;5.40;;;2.33;;
2099;SDS011;1055;48.854;9.302;2023-02-18T16:39:25;6.33;;;2.80;;
2099;SDS011;1055;48.854;9.302;2023-02-18T16:41:52;6.10;;;2.80;;
2099;SDS011;1055;48.854;9.302;2023-02-18T16:44:17;6.80;;;2.43;;
2099;SDS011;1055;48.854;9.302;2023-02-18T16:46:43;5.90;;;2.40;;
2099;SDS011;1055;48.854;9.302;2023-02-18T16:49:09;7.70;;;3.83;;
2099;SDS011;1055;48.854;9.302;2023-02-18T16:51:38;6.00;;;2.60;;
2099;SDS011;1055;48.854;9.302;2023-02-18T16:54:04;6.60;;;2.90;;
2099;SDS011;1055;48.854;9.302;2023-02-18T16:56:30;6.20;;;2.10;;
2099;SDS011;1055;48.854;9.302;2023-02-18T16:58:57;6.73;;;1.80;;
2099;SDS011;1055;48.854;9.302;2023-02-18T17:01:27;5.60;;;2.27;;
2099;SDS011;1055;48.854;9.302;2023-02-18T17:03:58;5.90;;;2.50;;
2099;SDS011;1055;48.854;9.302;2023-02-18T17:06:25;6.13;;;2.90;;
2099;SDS011;1055;48.854;9.302;2023-02-18T17:08:52;7.10;;;2.70;;
2099;SDS011;1055;48.854;9.302;2023-02-18T17:11:22;6.60;;;2.83;;
2099;SDS011;1055;48.854;9.302;2023-02-18T17:13:52;5.67;;;2.23;;
2099;SDS011;1055;48.854;9.302;2023-02-18T17:16:19;5.57;;;2.25;;
2099;SDS011;1055;48.854;9.302;2023-02-18T17:18:45;7.30;;;3.20;;
2099;SDS011;1055;48.854;9.302;2023-02-18T17:21:12;7.20;;;2.60;;
2099;SDS011;1055;48.854;9.302;2023-02-18T17:23:42;8.37;;;3.17;;
2099;SDS011;1055;48.854;9.302;2023-02-18T17:28:44;5.70;;;2.03;;
2099;SDS011;1055;48.854;9.302;2023-02-18T17:31:14;5.70;;;2.10;;
2099;SDS011;1055;48.854;9.302;2023-02-18T17:33:50;7.80;;;2.00;;
2099;SDS011;1055;48.854;9.302;2023-02-18T17:36:16;5.50;;;2.00;;
2099;SDS011;1055;48.854;9.302;2023-02-18T17:38:42;5.47;;;2.38;;
2099;SDS011;1055;48.854;9.302;2023-02-18T17:41:08;6.30;;;3.00;;
2099;SDS011;1055;48.854;9.302;2023-02-18T17:43:36;6.17;;;3.20;;
2099;SDS011;1055;48.854;9.302;2023-02-18T17:46:02;7.07;;;2.90;;
2099;SDS011;1055;48.854;9.302;2023-02-18T17:48:28;6.30;;;3.30;;
2099;SDS011;1055;48.854;9.302;2023-02-18T17:50:53;6.03;;;2.80;;
2099;SDS011;1055;48.854;9.302;2023-02-18T17:53:20;5.67;;;2.80;;
2099;SDS011;1055;48.854;9.302;2023-02-18T17:55:46;6.30;;;2.80;;
2099;SDS011;1055;48.854;9.302;2023-02-18T17:58:12;6.00;;;2.73;;
2099;SDS011;1055;48.854;9.302;2023-02-18T18:00:57;7.40;;;3.17;;
2099;SDS011;1055;48.854;9.302;2023-02-18T18:03:22;6.60;;;3.10;;
2099;SDS011;1055;48.854;9.302;2023-02-18T18:05:49;6.17;;;3.00;;
2099;SDS011;1055;48.854;9.302;2023-02-18T18:08:16;8.07;;;3.57;;